Terminal Aerodrome Forecast
Issued by NWS Paducah, KY

Home | Current Version | Previous Version | Text Only | Print | Product List | Glossary On
Versions: 1 2 3 4 5 6 7 8 9 10 11 12
819
FTUS43 KPAH 281731
TAFEVV
TAF
KEVV 281731Z 2818/2918 19010G17KT P6SM FEW045
     FM290000 18005KT P6SM SKC
     FM291400 19010G18KT P6SM BKN050=

USA.gov is the U.S. government's official web portal to all federal, state and local government web resources and services.